Time;durP1;ratioP1;P1;durP2;ratioP2;P2;SDS_P1;SDS_P2;PMS_P1;PMS_P2;Temp;Humidity;BMP_temperature;BMP_pressure;BME280_temperature;BME280_humidity;BME280_pressure;Samples;Min_cycle;Max_cycle;Signal;HPM_P1;HPM_P2
2021/06/29 00:01:51;;;;;;;6.68;5.75;;;24.40;58.10;;;;;;5082100;28;20079;-68
2021/06/29 00:04:35;;;;;;;8.40;5.80;;;24.40;58.00;;;;;;5070965;28;20047;-69
2021/06/29 00:07:19;;;;;;;7.13;6.43;;;24.40;58.70;;;;;;5058879;28;20052;-68
2021/06/29 00:10:07;;;;;;;7.95;6.53;;;24.40;58.60;;;;;;5052016;28;20123;-68
2021/06/29 00:12:53;;;;;;;8.05;6.07;;;24.30;58.40;;;;;;5065441;28;20039;-68
2021/06/29 00:15:37;;;;;;;8.80;6.28;;;24.30;58.30;;;;;;5053504;28;20439;-68
2021/06/29 00:18:22;;;;;;;7.18;6.15;;;24.30;58.70;;;;;;5092058;28;20400;-68
2021/06/29 00:21:06;;;;;;;9.13;6.35;;;24.20;58.50;;;;;;5088184;28;20075;-69
2021/06/29 00:23:50;;;;;;;7.20;6.38;;;24.20;58.30;;;;;;5071771;28;20086;-68
2021/06/29 00:26:34;;;;;;;7.33;6.17;;;24.20;58.40;;;;;;5069347;28;20037;-69
2021/06/29 00:29:19;;;;;;;7.60;6.80;;;24.20;58.40;;;;;;5071978;28;20343;-68
2021/06/29 00:32:04;;;;;;;8.65;6.88;;;24.20;59.00;;;;;;5060797;28;20051;-68
2021/06/29 00:34:49;;;;;;;7.97;7.18;;;24.20;58.90;;;;;;5051607;28;20483;-68
2021/06/29 00:37:33;;;;;;;9.50;7.37;;;24.10;58.90;;;;;;5079009;28;20055;-68
2021/06/29 00:40:18;;;;;;;7.18;6.47;;;24.10;58.80;;;;;;5081101;28;20878;-67
2021/06/29 00:43:02;;;;;;;9.43;6.93;;;24.10;59.00;;;;;;5069624;28;20040;-68
2021/06/29 00:45:46;;;;;;;7.47;6.68;;;24.10;59.00;;;;;;5071160;28;20039;-68
2021/06/29 00:48:30;;;;;;;6.78;6.03;;;24.00;58.90;;;;;;5071683;28;20023;-68
2021/06/29 00:51:17;;;;;;;7.63;6.82;;;24.00;59.10;;;;;;5072383;28;20055;-68
2021/06/29 00:54:01;;;;;;;7.22;6.53;;;23.90;59.30;;;;;;5091902;28;20035;-68
2021/06/29 00:56:46;;;;;;;7.82;6.68;;;24.00;59.40;;;;;;5082138;28;20097;-68
2021/06/29 00:59:33;;;;;;;7.60;6.43;;;23.90;59.70;;;;;;5071001;28;20062;-68
2021/06/29 01:02:17;;;;;;;8.93;7.03;;;23.90;59.90;;;;;;5080908;28;20337;-68
2021/06/29 01:05:04;;;;;;;8.13;6.80;;;23.80;59.50;;;;;;5076233;28;20573;-68
2021/06/29 01:07:49;;;;;;;8.70;6.95;;;23.80;59.70;;;;;;5073214;28;20600;-68
2021/06/29 01:10:33;;;;;;;9.55;6.95;;;23.80;59.60;;;;;;5057643;28;20092;-69
2021/06/29 01:13:31;;;;;;;7.47;6.53;;;23.80;59.80;;;;;;5088766;28;20040;-68
2021/06/29 01:15:58;;;;;;;8.77;7.25;;;23.80;60.00;;;;;;5056056;28;20036;-68
2021/06/29 01:18:43;;;;;;;7.75;6.93;;;23.80;60.30;;;;;;5095219;28;20058;-68
2021/06/29 01:21:35;;;;;;;7.47;6.78;;;23.70;60.50;;;;;;5087383;28;20392;-68
2021/06/29 01:24:31;;;;;;;8.32;6.90;;;23.70;60.70;;;;;;5074940;28;20074;-68
2021/06/29 01:27:34;;;;;;;6.50;5.88;;;23.70;60.80;;;;;;5062525;28;20048;-68
2021/06/29 01:33:02;;;;;;;7.60;6.80;;;23.60;61.10;;;;;;5074034;28;20043;-68
2021/06/29 01:35:47;;;;;;;6.72;6.03;;;23.60;61.30;;;;;;5081642;28;20128;-68
2021/06/29 01:38:31;;;;;;;7.93;6.78;;;23.60;61.70;;;;;;5074145;28;20523;-68
2021/06/29 01:41:19;;;;;;;8.63;6.78;;;23.60;61.70;;;;;;5074845;28;20040;-68
2021/06/29 01:44:10;;;;;;;7.88;7.07;;;23.50;61.90;;;;;;5074868;28;20039;-68
2021/06/29 01:46:56;;;;;;;7.72;6.50;;;23.50;62.00;;;;;;5074816;28;20039;-68
2021/06/29 01:49:40;;;;;;;8.02;7.22;;;23.60;62.10;;;;;;5074293;28;20085;-68
2021/06/29 01:52:24;;;;;;;9.00;6.57;;;23.50;62.20;;;;;;5095030;28;20063;-68
2021/06/29 01:55:09;;;;;;;7.85;7.05;;;23.50;62.40;;;;;;5077074;28;20085;-69
2021/06/29 01:57:53;;;;;;;7.82;6.53;;;23.50;62.50;;;;;;5076113;28;20553;-68
2021/06/29 02:00:38;;;;;;;7.05;6.35;;;23.50;62.70;;;;;;5064320;28;20440;-68
2021/06/29 02:03:22;;;;;;;7.72;6.93;;;23.50;62.60;;;;;;5074526;28;20534;-68
2021/06/29 02:06:06;;;;;;;7.47;6.75;;;23.50;62.70;;;;;;5085582;28;20063;-69
2021/06/29 02:08:50;;;;;;;7.50;6.78;;;23.50;62.90;;;;;;5094536;28;20085;-69
2021/06/29 02:11:36;;;;;;;7.35;6.57;;;23.50;62.90;;;;;;5073962;28;20051;-68
2021/06/29 02:14:21;;;;;;;7.43;6.55;;;23.50;63.00;;;;;;5073361;28;20100;-68
2021/06/29 02:17:05;;;;;;;7.65;6.75;;;23.50;63.20;;;;;;5054269;28;20397;-69
2021/06/29 02:19:49;;;;;;;7.80;7.00;;;23.40;63.30;;;;;;5057182;28;20101;-68
2021/06/29 02:22:33;;;;;;;7.97;7.10;;;23.50;63.60;;;;;;5058271;28;20032;-68
2021/06/29 02:25:17;;;;;;;7.43;6.55;;;23.40;63.60;;;;;;5079516;28;20074;-68
2021/06/29 02:28:01;;;;;;;10.15;7.38;;;23.40;63.80;;;;;;5094384;28;20031;-68
2021/06/29 02:30:45;;;;;;;7.50;6.70;;;23.40;63.90;;;;;;5080991;28;20140;-68
2021/06/29 02:33:30;;;;;;;;;;;23.40;64.20;;;;;;5059178;28;20492;-68
2021/06/29 02:36:14;;;;;;;7.18;6.45;;;23.40;63.30;;;;;;5086699;28;19919;-68
2021/06/29 02:38:58;;;;;;;8.38;7.07;;;23.40;64.10;;;;;;5094082;28;20047;-68
2021/06/29 02:41:42;;;;;;;7.38;6.65;;;23.40;64.20;;;;;;5090844;28;20108;-68
2021/06/29 02:44:26;;;;;;;8.02;7.18;;;23.40;64.50;;;;;;5091732;28;20117;-68
2021/06/29 02:47:11;;;;;;;8.52;7.32;;;23.40;64.50;;;;;;5053464;28;20115;-68
2021/06/29 02:49:55;;;;;;;;;;;23.50;64.70;;;;;;5058313;28;20120;-68
2021/06/29 02:52:39;;;;;;;7.25;6.55;;;23.50;64.00;;;;;;5089440;28;19915;-68
2021/06/29 02:55:23;;;;;;;7.80;7.03;;;23.40;64.70;;;;;;5083346;28;20519;-68
2021/06/29 02:58:08;;;;;;;8.00;7.20;;;23.40;64.80;;;;;;5073243;28;20047;-68
2021/06/29 03:00:52;;;;;;;8.70;7.32;;;23.50;65.00;;;;;;5083077;28;20101;-69
2021/06/29 03:03:36;;;;;;;8.23;7.07;;;23.50;65.00;;;;;;5075180;28;20044;-68
2021/06/29 03:06:20;;;;;;;7.93;7.03;;;23.50;65.00;;;;;;5032433;28;20556;-68
2021/06/29 03:09:06;;;;;;;9.47;7.40;;;23.50;65.10;;;;;;5033394;28;20123;-68
2021/06/29 03:11:50;;;;;;;9.45;8.02;;;23.50;65.30;;;;;;5031817;28;20052;-68
2021/06/29 03:14:35;;;;;;;9.10;7.30;;;23.50;65.20;;;;;;5047654;28;20044;-68
2021/06/29 03:17:20;;;;;;;8.80;7.75;;;23.50;65.40;;;;;;5053077;28;20044;-68
2021/06/29 03:20:09;;;;;;;9.35;7.40;;;23.50;65.50;;;;;;5041371;28;20051;-68
2021/06/29 03:22:53;;;;;;;8.27;7.47;;;23.60;65.50;;;;;;5031953;28;20095;-68
2021/06/29 03:25:37;;;;;;;8.43;7.55;;;23.60;65.50;;;;;;5040649;28;20039;-67
2021/06/29 03:28:21;;;;;;;8.18;7.28;;;23.60;65.60;;;;;;5053064;28;20500;-79
2021/06/29 03:31:05;;;;;;;8.77;7.70;;;23.60;65.60;;;;;;5037329;28;20097;-81
2021/06/29 03:33:49;;;;;;;7.90;7.10;;;23.60;65.60;;;;;;5022072;28;20048;-79
2021/06/29 03:36:34;;;;;;;9.40;8.27;;;23.60;65.70;;;;;;5031051;28;20043;-78
2021/06/29 03:39:18;;;;;;;10.13;7.90;;;23.60;65.80;;;;;;5032373;28;20420;-79
2021/06/29 03:42:03;;;;;;;10.00;8.25;;;23.60;65.80;;;;;;5013059;28;20033;-73
2021/06/29 03:44:47;;;;;;;9.50;8.52;;;23.60;65.80;;;;;;5016119;28;20507;-71
2021/06/29 03:47:31;;;;;;;8.43;7.53;;;23.70;66.00;;;;;;5032679;28;20040;-73
2021/06/29 03:50:15;;;;;;;9.47;8.30;;;23.70;66.10;;;;;;5033464;28;20039;-72
2021/06/29 03:52:59;;;;;;;9.38;8.48;;;23.70;66.30;;;;;;5033883;28;20814;-72
2021/06/29 03:55:43;;;;;;;12.13;8.23;;;23.70;66.50;;;;;;5040915;28;20128;-71
2021/06/29 03:58:27;;;;;;;9.18;7.95;;;23.70;66.40;;;;;;5054600;28;20036;-71
2021/06/29 04:01:11;;;;;;;9.00;8.10;;;23.70;66.50;;;;;;5035486;28;20148;-72
2021/06/29 04:03:57;;;;;;;12.05;8.20;;;23.70;66.40;;;;;;5036435;28;20542;-72
2021/06/29 04:06:41;;;;;;;9.07;7.95;;;23.70;66.70;;;;;;5083356;28;20043;-72
2021/06/29 04:09:25;;;;;;;10.48;7.80;;;23.70;66.80;;;;;;5084644;28;20039;-72
2021/06/29 04:12:09;;;;;;;10.40;8.25;;;23.70;66.80;;;;;;5072712;28;20504;-73
2021/06/29 04:14:54;;;;;;;10.25;8.02;;;23.80;66.80;;;;;;5074301;28;20084;-73
2021/06/29 04:17:38;;;;;;;9.98;8.52;;;23.80;67.10;;;;;;5077355;28;20027;-73
2021/06/29 04:20:22;;;;;;;11.32;8.63;;;23.80;67.70;;;;;;5081437;28;20059;-73
2021/06/29 04:23:06;;;;;;;13.90;9.55;;;23.80;67.10;;;;;;5079863;28;20066;-72
2021/06/29 04:25:50;;;;;;;11.88;8.60;;;23.80;67.40;;;;;;5069653;28;20078;-73
2021/06/29 04:28:34;;;;;;;10.80;8.05;;;23.80;67.70;;;;;;5071833;28;20039;-72
2021/06/29 04:31:19;;;;;;;11.50;8.75;;;23.90;67.70;;;;;;5084798;28;20112;-72
2021/06/29 04:34:03;;;;;;;11.30;8.32;;;23.90;68.00;;;;;;5036501;28;20556;-73
2021/06/29 04:36:47;;;;;;;11.32;7.75;;;23.90;68.00;;;;;;5071371;28;20162;-73
2021/06/29 04:39:31;;;;;;;10.57;8.68;;;23.90;68.50;;;;;;5069844;28;20094;-72
2021/06/29 04:42:15;;;;;;;10.40;8.32;;;23.90;68.50;;;;;;5036287;28;20060;-72
2021/06/29 04:44:59;;;;;;;10.48;9.38;;;24.00;68.80;;;;;;5056764;28;20222;-73
2021/06/29 04:47:47;;;;;;;14.88;9.50;;;24.00;68.60;;;;;;5091723;28;20043;-73
2021/06/29 04:50:31;;;;;;;11.63;8.52;;;24.10;68.50;;;;;;5078555;28;20081;-73
2021/06/29 04:53:15;;;;;;;11.20;8.95;;;24.10;68.80;;;;;;5071633;28;20039;-72
2021/06/29 04:55:59;;;;;;;10.18;9.18;;;24.10;68.90;;;;;;5077304;28;20046;-70
2021/06/29 04:58:52;;;;;;;11.75;8.98;;;24.10;69.20;;;;;;5091295;28;20597;-71
2021/06/29 05:01:36;;;;;;;12.52;8.98;;;24.10;69.10;;;;;;5073606;28;20073;-70
2021/06/29 05:04:20;;;;;;;9.60;8.55;;;24.20;69.20;;;;;;5090653;28;20111;-71
2021/06/29 05:07:04;;;;;;;9.93;8.38;;;24.20;69.70;;;;;;5051569;28;20462;-71
2021/06/29 05:09:48;;;;;;;13.98;9.95;;;24.30;70.00;;;;;;5056571;28;20700;-71
2021/06/29 05:12:32;;;;;;;10.73;9.63;;;24.40;70.00;;;;;;5071762;28;20036;-74
2021/06/29 05:15:16;;;;;;;11.02;9.57;;;24.40;70.00;;;;;;5076377;28;20039;-73
2021/06/29 05:18:02;;;;;;;9.63;8.63;;;24.40;69.90;;;;;;5089568;28;20059;-73
2021/06/29 05:20:46;;;;;;;10.55;8.60;;;24.50;69.80;;;;;;5073722;28;20817;-73
2021/06/29 05:23:30;;;;;;;10.18;8.80;;;24.60;69.40;;;;;;5091359;28;20491;-72
2021/06/29 05:26:14;;;;;;;9.68;8.48;;;24.60;70.20;;;;;;5085180;28;20399;-73
2021/06/29 05:28:59;;;;;;;13.10;9.02;;;24.70;70.10;;;;;;5074745;28;20096;-73
2021/06/29 05:31:44;;;;;;;;;;;24.70;70.20;;;;;;5065509;28;20039;-73
2021/06/29 05:34:28;;;;;;;;;;;24.80;69.70;;;;;;5066843;28;20407;-73
2021/06/29 05:37:12;;;;;;;10.50;9.40;;;24.80;69.80;;;;;;5057690;28;19976;-73
2021/06/29 05:39:57;;;;;;;10.75;9.30;;;24.90;70.10;;;;;;5078045;28;20479;-71
2021/06/29 05:42:41;;;;;;;10.00;8.80;;;24.90;69.70;;;;;;5071552;28;20039;-71
2021/06/29 05:45:25;;;;;;;10.23;9.13;;;25.00;70.20;;;;;;5068015;28;20391;-71
2021/06/29 05:48:13;;;;;;;11.73;9.40;;;25.00;70.00;;;;;;5076793;28;20085;-73
2021/06/29 05:50:57;;;;;;;11.30;9.07;;;25.10;70.10;;;;;;5087494;28;20442;-67
2021/06/29 05:53:41;;;;;;;;;;;25.20;70.60;;;;;;5070388;28;20388;-66
2021/06/29 05:56:26;;;;;;;10.40;8.80;;;25.30;70.10;;;;;;5080013;28;19915;-67
2021/06/29 05:59:10;;;;;;;11.25;9.13;;;25.30;71.30;;;;;;5079901;28;20090;-67
2021/06/29 06:01:55;;;;;;;10.80;8.57;;;25.30;71.90;;;;;;5066457;28;20051;-67
2021/06/29 06:04:39;;;;;;;11.02;9.85;;;25.40;70.90;;;;;;5075421;28;20055;-67
2021/06/29 06:07:23;;;;;;;14.43;10.07;;;25.50;71.20;;;;;;5076578;28;20085;-66
2021/06/29 06:10:08;;;;;;;12.32;9.60;;;25.50;71.10;;;;;;5077643;28;20031;-66
2021/06/29 06:12:52;;;;;;;;;;;25.60;70.90;;;;;;5066666;28;20096;-68
2021/06/29 06:15:37;;;;;;;11.35;10.13;;;25.60;70.70;;;;;;5069449;28;19916;-65
2021/06/29 06:18:21;;;;;;;11.60;9.90;;;25.70;70.80;;;;;;5074126;28;20042;-65
2021/06/29 06:21:06;;;;;;;13.70;9.85;;;25.70;70.50;;;;;;5067762;28;20043;-66
2021/06/29 06:23:50;;;;;;;14.23;10.10;;;25.80;70.80;;;;;;5079377;28;20052;-65
2021/06/29 06:26:34;;;;;;;12.77;9.80;;;25.90;70.80;;;;;;5078406;28;20175;-65
2021/06/29 06:29:18;;;;;;;10.00;9.02;;;26.00;70.80;;;;;;5078476;28;20532;-65
2021/06/29 06:32:03;;;;;;;12.43;9.52;;;26.10;70.30;;;;;;5068981;28;20562;-66
2021/06/29 06:34:46;;;;;;;9.55;8.48;;;26.20;69.80;;;;;;5068009;28;20451;-66
2021/06/29 06:37:30;;;;;;;12.52;9.57;;;26.30;70.30;;;;;;5081477;28;20078;-66
2021/06/29 06:40:14;;;;;;;10.35;9.27;;;26.30;68.90;;;;;;5073734;28;20185;-66
2021/06/29 06:42:59;;;;;;;11.90;10.43;;;26.40;69.60;;;;;;5076344;28;20040;-66
2021/06/29 06:45:43;;;;;;;10.65;9.23;;;26.50;70.20;;;;;;5077421;28;20400;-66
2021/06/29 06:48:27;;;;;;;12.32;10.10;;;26.50;69.60;;;;;;5068533;28;20047;-66
2021/06/29 06:51:11;;;;;;;12.05;9.85;;;26.60;68.30;;;;;;5078962;28;20101;-67
2021/06/29 06:53:55;;;;;;;11.18;8.98;;;26.60;68.00;;;;;;5073954;28;20121;-66
2021/06/29 06:56:39;;;;;;;10.45;9.38;;;26.70;68.90;;;;;;5071415;28;20043;-65
2021/06/29 06:59:23;;;;;;;11.25;10.00;;;26.80;69.20;;;;;;5077121;28;20048;-66
2021/06/29 07:02:07;;;;;;;10.55;9.43;;;26.90;69.30;;;;;;5068363;28;20396;-66
2021/06/29 07:04:51;;;;;;;13.95;10.40;;;27.00;69.40;;;;;;5072703;28;20110;-67
2021/06/29 07:07:35;;;;;;;12.00;10.10;;;27.10;70.10;;;;;;5066132;28;20031;-65
2021/06/29 07:10:19;;;;;;;10.45;9.45;;;27.20;69.60;;;;;;5071012;28;20031;-65
2021/06/29 07:13:03;;;;;;;11.43;10.23;;;27.40;69.20;;;;;;5058006;28;20074;-65
2021/06/29 07:15:47;;;;;;;13.95;9.55;;;27.50;67.30;;;;;;5074747;28;20040;-65
2021/06/29 07:18:31;;;;;;;12.32;9.63;;;27.60;66.60;;;;;;5083898;28;20039;-65
2021/06/29 07:21:15;;;;;;;13.57;11.18;;;27.60;65.70;;;;;;5074159;28;20123;-65
2021/06/29 07:24:00;;;;;;;11.60;9.70;;;27.60;65.20;;;;;;5070016;28;20042;-65
2021/06/29 07:26:44;;;;;;;11.88;10.07;;;27.70;65.10;;;;;;5067321;28;20060;-65
2021/06/29 07:29:28;;;;;;;10.88;9.50;;;27.70;65.40;;;;;;5078930;28;20081;-64
2021/06/29 07:32:13;;;;;;;11.45;9.57;;;27.80;66.00;;;;;;5071469;28;20584;-65
2021/06/29 07:34:58;;;;;;;13.18;9.85;;;27.80;65.00;;;;;;5083556;28;20035;-65
2021/06/29 07:37:41;;;;;;;13.80;9.70;;;27.90;65.30;;;;;;5069797;28;20034;-65
2021/06/29 07:40:29;;;;;;;10.55;9.45;;;28.00;65.60;;;;;;5066983;28;20093;-65
2021/06/29 07:43:15;;;;;;;11.68;10.32;;;28.00;65.00;;;;;;5070398;28;20020;-65
2021/06/29 07:46:00;;;;;;;12.60;9.88;;;28.10;65.30;;;;;;5068981;28;20734;-65
2021/06/29 07:48:47;;;;;;;14.98;9.57;;;28.10;64.90;;;;;;5075774;28;20458;-65
2021/06/29 07:51:33;;;;;;;11.32;9.93;;;28.10;64.90;;;;;;5068277;28;20044;-65
2021/06/29 07:54:19;;;;;;;11.70;9.52;;;28.20;65.20;;;;;;5064965;28;20027;-66
2021/06/29 07:57:05;;;;;;;17.77;10.95;;;28.30;64.90;;;;;;5068285;28;20558;-65
2021/06/29 07:59:51;;;;;;;12.43;9.32;;;28.40;65.10;;;;;;5071450;28;20048;-65
2021/06/29 08:02:37;;;;;;;15.73;9.25;;;28.50;65.00;;;;;;5070238;28;20020;-65
2021/06/29 08:05:23;;;;;;;13.63;10.57;;;28.60;64.50;;;;;;5058844;28;20052;-65
2021/06/29 08:08:09;;;;;;;11.88;9.05;;;28.80;64.60;;;;;;5068043;28;20101;-65
2021/06/29 08:11:01;;;;;;;13.73;9.35;;;28.90;64.60;;;;;;5066037;28;20499;-65
2021/06/29 08:13:47;;;;;;;12.02;10.00;;;29.00;64.40;;;;;;5074681;28;20069;-65
2021/06/29 08:16:32;;;;;;;16.77;9.23;;;29.10;63.70;;;;;;5071060;28;20023;-65
2021/06/29 08:19:18;;;;;;;13.82;9.48;;;29.10;62.60;;;;;;5065589;28;20129;-65
2021/06/29 08:22:05;;;;;;;12.85;9.65;;;29.20;62.30;;;;;;5071848;28;20036;-65
2021/06/29 08:24:51;;;;;;;11.98;9.38;;;29.20;62.50;;;;;;5075370;28;20400;-65
2021/06/29 08:27:38;;;;;;;10.68;9.15;;;29.30;63.60;;;;;;5066623;28;20020;-65
2021/06/29 08:30:24;;;;;;;11.35;8.65;;;29.40;63.20;;;;;;5076515;28;20520;-65
2021/06/29 08:33:11;;;;;;;11.88;8.73;;;29.50;61.20;;;;;;5062455;28;20033;-65
2021/06/29 08:35:57;;;;;;;10.90;8.32;;;29.60;61.10;;;;;;5069904;28;20024;-65
2021/06/29 08:38:43;;;;;;;11.90;8.85;;;29.70;61.10;;;;;;5064292;28;20558;-65
2021/06/29 08:41:29;;;;;;;8.50;7.70;;;29.70;61.20;;;;;;5068223;28;20036;-65
2021/06/29 08:44:15;;;;;;;9.73;7.72;;;29.90;60.30;;;;;;5069451;28;20056;-65
2021/06/29 08:47:01;;;;;;;10.57;8.07;;;29.90;60.50;;;;;;5065816;28;20082;-65
2021/06/29 08:49:47;;;;;;;10.30;7.90;;;30.00;60.80;;;;;;5065505;28;20121;-65
2021/06/29 08:52:33;;;;;;;10.90;7.70;;;30.10;60.10;;;;;;5066361;28;20037;-65
2021/06/29 08:55:20;;;;;;;8.68;7.43;;;30.20;59.50;;;;;;5068187;28;20082;-65
2021/06/29 08:58:06;;;;;;;10.35;7.40;;;30.40;59.00;;;;;;5053396;28;20038;-65
2021/06/29 09:00:52;;;;;;;9.95;6.75;;;30.40;58.60;;;;;;5078696;28;20043;-65
2021/06/29 09:03:39;;;;;;;7.78;7.03;;;30.50;58.50;;;;;;5081782;28;20591;-65
2021/06/29 09:06:44;;;;;;;8.05;6.85;;;30.50;58.60;;;;;;5060051;28;20527;-65
2021/06/29 09:09:31;;;;;;;7.53;6.72;;;30.50;58.50;;;;;;5067663;28;20032;-65
2021/06/29 09:12:41;;;;;;;10.55;7.13;;;30.60;58.20;;;;;;5062469;28;20021;-65
2021/06/29 09:15:36;;;;;;;7.80;6.95;;;30.70;58.30;;;;;;5075511;28;20022;-65
2021/06/29 09:18:25;;;;;;;7.85;7.07;;;30.80;59.00;;;;;;5079977;28;20029;-65
2021/06/29 09:21:12;;;;;;;9.20;7.00;;;30.80;57.70;;;;;;5073769;28;20025;-65
2021/06/29 09:23:58;;;;;;;8.68;6.63;;;30.90;57.60;;;;;;5076077;28;20071;-65
2021/06/29 09:26:44;;;;;;;6.78;6.10;;;31.00;58.00;;;;;;5065577;28;20622;-65
2021/06/29 09:29:37;;;;;;;8.18;7.38;;;31.10;57.80;;;;;;5067800;28;20396;-65
2021/06/29 09:32:32;;;;;;;11.73;7.57;;;31.10;57.20;;;;;;5071189;28;20079;-65
2021/06/29 09:35:18;;;;;;;15.75;8.10;;;31.10;56.70;;;;;;5068997;28;20090;-66
2021/06/29 09:38:03;;;;;;;8.55;7.35;;;31.10;56.10;;;;;;5081741;28;20039;-64
2021/06/29 09:40:57;;;;;;;9.23;7.85;;;31.10;56.60;;;;;;5071003;28;20121;-65
2021/06/29 09:43:46;;;;;;;9.38;6.85;;;31.10;57.00;;;;;;5081608;28;20031;-66
2021/06/29 09:46:31;;;;;;;7.85;7.03;;;31.10;56.90;;;;;;5082328;28;20111;-66
2021/06/29 09:49:16;;;;;;;8.38;7.15;;;31.10;56.40;;;;;;5077919;28;20032;-65
2021/06/29 09:52:04;;;;;;;11.25;7.28;;;31.00;55.90;;;;;;5074261;28;20046;-66
2021/06/29 09:54:35;;;;;;;9.73;7.28;;;31.00;55.70;;;;;;5078819;28;20488;-66
2021/06/29 09:57:01;;;;;;;10.80;6.60;;;31.10;55.80;;;;;;5074260;28;20043;-66
2021/06/29 09:59:27;;;;;;;7.10;6.40;;;31.10;55.40;;;;;;5071818;28;20037;-66
2021/06/29 10:02:05;;;;;;;9.55;6.93;;;31.10;55.10;;;;;;5090953;28;20032;-67
2021/06/29 10:04:32;;;;;;;9.85;6.55;;;31.20;55.30;;;;;;5082154;28;20488;-66
2021/06/29 10:07:15;;;;;;;8.23;7.03;;;31.20;55.60;;;;;;5051621;28;20038;-66
2021/06/29 10:09:41;;;;;;;11.60;8.30;;;31.20;55.60;;;;;;5073959;28;20044;-66
2021/06/29 10:12:07;;;;;;;8.00;7.20;;;31.30;54.30;;;;;;5085397;28;20109;-66
2021/06/29 10:14:34;;;;;;;8.80;7.93;;;31.30;53.80;;;;;;5080012;28;20028;-66
2021/06/29 10:17:00;;;;;;;9.20;8.30;;;31.30;54.80;;;;;;5079757;28;20110;-66
2021/06/29 10:22:11;;;;;;;10.27;7.95;;;31.50;54.30;;;;;;5072320;28;20032;-66
2021/06/29 10:24:37;;;;;;;9.20;7.53;;;31.60;54.70;;;;;;5079833;28;20103;-67
2021/06/29 10:27:06;;;;;;;8.45;6.93;;;31.70;53.40;;;;;;5081404;28;20491;-66
2021/06/29 10:29:34;;;;;;;7.95;7.25;;;31.80;53.80;;;;;;5069999;28;20025;-66
2021/06/29 10:32:10;;;;;;;8.25;7.45;;;31.90;53.40;;;;;;5079976;28;20095;-66
2021/06/29 10:34:36;;;;;;;10.98;8.13;;;31.90;54.30;;;;;;5081958;28;20511;-66
2021/06/29 10:37:04;;;;;;;9.30;7.32;;;32.00;53.60;;;;;;5084038;28;20024;-66
2021/06/29 10:39:31;;;;;;;8.43;7.63;;;32.00;53.60;;;;;;5067985;28;20812;-66
2021/06/29 10:42:02;;;;;;;9.70;7.72;;;32.00;54.10;;;;;;5071533;28;20094;-66
2021/06/29 10:44:33;;;;;;;9.75;7.88;;;32.00;53.80;;;;;;5079258;28;20427;-66
2021/06/29 10:46:59;;;;;;;9.88;7.80;;;32.00;54.20;;;;;;5076459;28;20032;-66
2021/06/29 10:49:29;;;;;;;10.88;7.35;;;32.00;54.60;;;;;;5077669;28;20368;-66
2021/06/29 10:51:59;;;;;;;8.77;7.90;;;32.00;53.90;;;;;;5085753;28;20043;-66
2021/06/29 10:54:46;;;;;;;12.20;7.97;;;32.00;53.50;;;;;;5068364;28;20028;-67
2021/06/29 10:57:16;;;;;;;8.27;7.47;;;32.00;53.40;;;;;;5062473;28;20461;-66
2021/06/29 10:59:47;;;;;;;8.35;7.55;;;31.90;53.30;;;;;;5064893;28;20036;-66
2021/06/29 11:02:37;;;;;;;8.95;8.05;;;31.80;53.10;;;;;;5075594;28;20021;-66
2021/06/29 11:05:04;;;;;;;12.88;8.65;;;31.70;53.30;;;;;;5065230;28;20060;-68
2021/06/29 11:07:29;;;;;;;10.70;7.88;;;31.60;53.00;;;;;;5076143;28;20373;-67
2021/06/29 11:09:59;;;;;;;14.23;9.25;;;31.50;55.00;;;;;;5069324;28;20025;-67
2021/06/29 11:12:29;;;;;;;18.20;11.07;;;31.30;58.10;;;;;;5081023;28;20060;-67
2021/06/29 11:14:56;;;;;;;20.02;11.98;;;31.00;63.30;;;;;;5077273;28;20028;-67
2021/06/29 11:17:42;;;;;;;15.52;10.30;;;30.60;65.90;;;;;;5080074;28;20102;-68
2021/06/29 11:20:10;;;;;;;13.57;9.35;;;29.80;66.10;;;;;;5071495;28;20098;-68
2021/06/29 11:22:54;;;;;;;10.07;7.97;;;29.00;67.00;;;;;;5074020;28;20024;-68
2021/06/29 11:25:40;;;;;;;10.00;7.55;;;28.10;67.60;;;;;;5070612;28;20113;-67
2021/06/29 11:28:14;;;;;;;9.20;6.90;;;27.40;69.20;;;;;;5080528;28;20031;-67
2021/06/29 11:31:08;;;;;;;8.65;7.72;;;26.90;67.70;;;;;;5075195;28;20060;-68
2021/06/29 11:33:38;;;;;;;8.25;6.68;;;26.70;70.50;;;;;;5071156;28;20063;-68
2021/06/29 11:36:23;;;;;;;8.73;7.07;;;26.50;70.40;;;;;;5067340;28;20089;-68
2021/06/29 11:38:51;;;;;;;8.88;7.93;;;26.30;71.80;;;;;;5078523;28;20388;-67
2021/06/29 11:41:25;;;;;;;10.02;8.77;;;26.20;74.10;;;;;;5068196;28;20115;-68
2021/06/29 11:43:53;;;;;;;9.73;8.73;;;26.30;78.10;;;;;;5061005;28;20542;-68
2021/06/29 11:46:46;;;;;;;10.60;8.55;;;26.40;80.40;;;;;;5070155;28;20044;-68
2021/06/29 11:49:15;;;;;;;8.40;7.47;;;26.60;80.80;;;;;;5070248;28;20028;-67
2021/06/29 11:51:50;;;;;;;9.98;7.93;;;26.70;80.20;;;;;;5054096;28;20072;-68
2021/06/29 11:54:39;;;;;;;11.75;9.20;;;26.90;80.40;;;;;;5078637;28;20036;-68
2021/06/29 11:57:32;;;;;;;10.32;8.88;;;27.00;81.10;;;;;;5066799;28;20028;-68
2021/06/29 12:00:00;;;;;;;9.57;8.57;;;27.30;80.40;;;;;;5066339;28;20040;-67
2021/06/29 12:02:30;;;;;;;9.60;8.60;;;27.40;81.80;;;;;;5077972;28;20055;-67
2021/06/29 12:05:04;;;;;;;10.85;9.25;;;27.60;82.90;;;;;;5067220;28;20074;-68
2021/06/29 12:07:38;;;;;;;11.07;9.82;;;27.90;82.00;;;;;;5063838;28;20121;-67
2021/06/29 12:10:10;;;;;;;13.00;11.68;;;28.10;80.30;;;;;;5062208;28;20280;-66
2021/06/29 12:12:37;;;;;;;13.18;11.27;;;28.30;81.80;;;;;;5064001;28;20032;-66
2021/06/29 12:15:08;;;;;;;14.40;12.25;;;28.40;83.10;;;;;;5071306;28;20108;-66
2021/06/29 12:17:34;;;;;;;12.85;11.38;;;28.50;83.40;;;;;;5051822;28;20389;-67
2021/06/29 12:20:09;;;;;;;11.57;10.48;;;28.60;83.50;;;;;;5070430;28;20075;-67
2021/06/29 12:22:37;;;;;;;11.48;10.27;;;28.70;80.20;;;;;;5070408;28;20064;-67
2021/06/29 12:25:06;;;;;;;12.18;10.80;;;28.90;80.10;;;;;;5071305;28;20035;-67
2021/06/29 12:27:31;;;;;;;11.48;10.38;;;29.00;79.00;;;;;;5047380;28;20099;-67
2021/06/29 12:29:57;;;;;;;13.20;11.80;;;29.10;77.90;;;;;;5063297;28;20035;-67
2021/06/29 12:32:25;;;;;;;12.77;11.18;;;29.20;78.80;;;;;;5069912;28;20060;-67
2021/06/29 12:35:07;;;;;;;13.32;11.93;;;29.20;77.10;;;;;;5069934;28;20041;-66
2021/06/29 12:37:58;;;;;;;12.82;11.52;;;29.30;78.80;;;;;;5070253;28;20115;-67
2021/06/29 12:40:27;;;;;;;12.45;11.32;;;29.40;76.40;;;;;;5069237;28;20070;-67
2021/06/29 12:42:53;;;;;;;12.85;11.50;;;29.50;75.50;;;;;;5070196;28;20033;-66
2021/06/29 12:45:20;;;;;;;12.73;11.52;;;29.60;76.10;;;;;;5070800;28;20486;-66
2021/06/29 12:47:46;;;;;;;12.43;11.32;;;29.60;76.80;;;;;;5068918;28;20028;-66
2021/06/29 12:50:11;;;;;;;13.10;11.80;;;29.60;76.60;;;;;;5069895;28;20086;-67
2021/06/29 12:52:37;;;;;;;13.25;11.95;;;29.60;77.00;;;;;;5070015;28;20036;-66
2021/06/29 12:55:05;;;;;;;12.10;10.98;;;29.70;76.00;;;;;;5064941;28;20060;-67
2021/06/29 12:57:31;;;;;;;12.73;11.43;;;29.70;74.70;;;;;;5069869;28;20024;-67
2021/06/29 12:59:57;;;;;;;12.20;11.00;;;29.80;74.30;;;;;;5067147;28;20052;-66
2021/06/29 13:02:27;;;;;;;13.20;11.75;;;29.90;73.50;;;;;;5065438;28;20036;-66
2021/06/29 13:04:58;;;;;;;11.02;10.02;;;29.90;73.70;;;;;;5069747;28;20052;-66
2021/06/29 13:07:24;;;;;;;11.85;10.55;;;30.00;72.30;;;;;;5071244;28;20032;-66
2021/06/29 13:09:50;;;;;;;11.73;9.15;;;30.00;73.60;;;;;;5073786;28;20028;-66
2021/06/29 13:12:19;;;;;;;10.48;9.48;;;30.10;71.90;;;;;;5074155;28;20036;-66
2021/06/29 13:15:01;;;;;;;11.82;10.18;;;30.10;70.80;;;;;;5055548;28;20453;-66
2021/06/29 13:17:51;;;;;;;9.63;8.73;;;30.20;70.80;;;;;;5057762;28;20067;-66
2021/06/29 13:20:20;;;;;;;10.57;9.20;;;30.10;70.60;;;;;;5074675;28;20493;-66
2021/06/29 13:22:51;;;;;;;9.45;8.55;;;30.10;68.50;;;;;;5071288;28;20036;-66
2021/06/29 13:25:45;;;;;;;11.27;10.15;;;30.10;69.00;;;;;;5070879;28;20464;-66
2021/06/29 13:28:30;;;;;;;11.00;9.90;;;30.10;70.00;;;;;;5073293;28;20078;-66
2021/06/29 13:31:14;;;;;;;12.65;10.63;;;30.00;68.30;;;;;;5057374;28;20047;-66
2021/06/29 13:33:58;;;;;;;12.57;10.07;;;30.00;68.90;;;;;;5074538;28;20277;-66
2021/06/29 13:36:42;;;;;;;11.10;9.73;;;30.00;68.80;;;;;;5072557;28;20032;-66
2021/06/29 13:39:30;;;;;;;11.23;10.18;;;30.10;68.20;;;;;;5072078;28;20412;-67
2021/06/29 13:42:23;;;;;;;13.02;10.65;;;30.10;68.60;;;;;;5062403;28;20443;-66
2021/06/29 13:45:08;;;;;;;12.88;10.15;;;30.10;67.20;;;;;;5071795;28;20082;-67
2021/06/29 13:47:54;;;;;;;14.70;10.30;;;30.10;67.10;;;;;;5076264;28;20428;-66
2021/06/29 13:50:44;;;;;;;13.77;10.25;;;30.00;67.80;;;;;;5056038;28;20043;-68
2021/06/29 13:53:33;;;;;;;11.00;9.90;;;30.00;67.10;;;;;;5064872;28;20032;-70
2021/06/29 13:56:18;;;;;;;11.68;9.32;;;30.00;67.10;;;;;;5076492;28;20047;-67
2021/06/29 13:59:02;;;;;;;10.95;9.55;;;29.90;66.80;;;;;;5073440;28;20085;-69
2021/06/29 14:01:53;;;;;;;11.75;9.63;;;29.90;67.10;;;;;;5062245;28;20102;-68